Time;durP1;ratioP1;P1;durP2;ratioP2;P2;SDS_P1;SDS_P2;PMS_P1;PMS_P2;Temp;Humidity;BMP_temperature;BMP_pressure;BME280_temperature;BME280_humidity;BME280_pressure;Samples;Min_cycle;Max_cycle;Signal;HPM_P1;HPM_P2
2021/10/16 00:00:58;;;;;;;0.82;0.35;;;4.50;99.90;;;;;;20908265;28;20246;-51
2021/10/16 00:11:00;;;;;;;1.58;0.65;;;4.40;99.90;;;;;;20838870;28;20037;-53
2021/10/16 00:21:03;;;;;;;1.95;0.63;;;4.30;99.90;;;;;;20824239;28;20057;-53
2021/10/16 00:31:05;;;;;;;1.00;0.40;;;4.30;99.90;;;;;;20823337;28;20447;-53
2021/10/16 00:41:09;;;;;;;0.75;0.20;;;4.50;99.90;;;;;;20853197;28;20046;-53
2021/10/16 00:51:12;;;;;;;0.95;0.40;;;4.60;99.90;;;;;;20904290;28;20440;-51
2021/10/16 01:01:13;;;;;;;0.57;0.30;;;4.70;99.90;;;;;;20838321;28;20100;-52
2021/10/16 01:11:16;;;;;;;1.10;0.30;;;4.70;99.90;;;;;;20820110;28;20033;-54
2021/10/16 01:21:18;;;;;;;0.73;0.20;;;5.00;99.90;;;;;;20802581;28;20324;-51
2021/10/16 01:31:23;;;;;;;0.20;0.10;;;4.90;99.90;;;;;;20802537;28;20033;-54
2021/10/16 01:41:25;;;;;;;0.82;0.20;;;4.90;99.90;;;;;;20854909;28;20045;-53
2021/10/16 01:51:27;;;;;;;0.57;0.20;;;4.80;99.90;;;;;;20819371;28;20088;-53
2021/10/16 02:01:29;;;;;;;0.22;0.10;;;4.60;99.90;;;;;;20834276;28;20042;-53
2021/10/16 02:11:48;;;;;;;0.50;0.20;;;4.60;99.90;;;;;;20794640;28;20037;-52
2021/10/16 02:21:50;;;;;;;0.40;0.20;;;4.60;99.90;;;;;;20849136;28;20044;-55
2021/10/16 02:31:52;;;;;;;0.57;0.20;;;4.50;99.90;;;;;;20815213;28;20088;-52
2021/10/16 02:41:59;;;;;;;0.45;0.28;;;4.50;99.90;;;;;;20847212;28;20045;-53
2021/10/16 02:52:04;;;;;;;1.17;0.20;;;4.40;99.90;;;;;;20813839;28;20034;-56
2021/10/16 03:02:07;;;;;;;0.25;0.10;;;4.30;99.90;;;;;;20812656;28;20543;-51
2021/10/16 03:12:10;;;;;;;1.15;0.20;;;4.30;99.90;;;;;;20829752;28;20076;-52
2021/10/16 03:22:18;;;;;;;1.13;0.30;;;4.20;99.90;;;;;;20810503;28;20025;-52
2021/10/16 03:32:21;;;;;;;2.60;0.10;;;4.40;99.90;;;;;;20829089;28;20036;-54
2021/10/16 03:42:23;;;;;;;0.60;0.30;;;4.40;99.90;;;;;;20909308;28;20119;-51
2021/10/16 03:52:35;;;;;;;1.15;0.40;;;4.40;99.90;;;;;;20891066;28;20033;-52
2021/10/16 04:02:40;;;;;;;0.93;0.32;;;4.30;99.90;;;;;;20890454;28;20033;-52
2021/10/16 04:12:42;;;;;;;0.57;0.22;;;4.30;99.90;;;;;;20802402;28;20087;-53
2021/10/16 04:22:45;;;;;;;0.52;0.30;;;4.30;99.90;;;;;;20824648;28;20448;-54
2021/10/16 04:32:48;;;;;;;2.03;0.30;;;4.10;99.90;;;;;;20805051;28;20041;-57
2021/10/16 04:42:51;;;;;;;0.90;0.50;;;4.10;99.90;;;;;;20867420;28;20040;-54
2021/10/16 04:52:53;;;;;;;0.50;0.30;;;4.20;99.90;;;;;;20886469;28;20087;-53
2021/10/16 05:03:02;;;;;;;0.73;0.30;;;4.10;99.90;;;;;;20885808;28;20045;-52
2021/10/16 05:13:06;;;;;;;2.30;0.30;;;4.00;99.90;;;;;;20878798;28;20045;-51
2021/10/16 05:23:08;;;;;;;0.77;0.20;;;4.00;99.90;;;;;;20861983;28;20064;-51
2021/10/16 05:33:11;;;;;;;2.13;0.40;;;4.10;99.90;;;;;;20886588;28;20148;-50
2021/10/16 05:43:13;;;;;;;0.70;0.30;;;4.00;99.90;;;;;;20785910;28;20128;-54
2021/10/16 05:53:18;;;;;;;0.85;0.30;;;4.00;99.90;;;;;;20797427;28;20493;-53
2021/10/16 06:03:20;;;;;;;0.77;0.40;;;4.00;99.90;;;;;;20818955;28;20182;-54
2021/10/16 06:13:27;;;;;;;1.23;0.30;;;4.20;99.90;;;;;;20894017;28;20072;-54
2021/10/16 06:23:29;;;;;;;1.25;0.38;;;4.20;99.90;;;;;;20877084;28;20081;-53
2021/10/16 06:33:32;;;;;;;0.60;0.20;;;4.30;99.90;;;;;;20893434;28;20073;-50
2021/10/16 06:43:35;;;;;;;0.73;0.28;;;4.30;99.90;;;;;;20822618;28;20080;-52
2021/10/16 06:54:02;;;;;;;0.60;0.30;;;4.50;99.90;;;;;;20800400;28;20081;-53
2021/10/16 07:04:04;;;;;;;0.80;0.40;;;4.80;99.90;;;;;;20808623;28;20127;-51
2021/10/16 07:14:07;;;;;;;1.33;0.40;;;5.40;99.90;;;;;;20823478;28;20069;-52
2021/10/16 07:24:11;;;;;;;0.90;0.30;;;6.30;99.90;;;;;;20823060;28;20123;-53
2021/10/16 07:34:13;;;;;;;0.55;0.20;;;7.80;99.90;;;;;;20823782;28;20098;-51
2021/10/16 07:44:16;;;;;;;0.95;0.30;;;9.20;99.90;;;;;;20886463;28;20084;-50
2021/10/16 07:54:18;;;;;;;0.70;0.20;;;10.30;99.90;;;;;;20886931;28;20075;-51
2021/10/16 08:04:20;;;;;;;0.38;0.15;;;11.10;99.90;;;;;;20871231;28;20112;-52
2021/10/16 08:14:22;;;;;;;0.45;0.20;;;12.10;99.90;;;;;;20803648;28;20069;-53
2021/10/16 08:24:25;;;;;;;0.40;0.20;;;12.80;99.80;;;;;;20801672;28;20065;-52
2021/10/16 08:34:27;;;;;;;0.32;0.17;;;13.20;99.40;;;;;;20800903;28;20095;-55
2021/10/16 08:44:29;;;;;;;0.57;0.20;;;13.60;98.50;;;;;;20857991;28;20134;-50
2021/10/16 08:54:30;;;;;;;2.85;0.68;;;14.00;98.40;;;;;;20869124;28;20076;-56
2021/10/16 09:04:35;;;;;;;3.55;1.05;;;14.10;97.20;;;;;;20797764;28;20077;-55
2021/10/16 09:14:48;;;;;;;2.40;1.25;;;14.00;98.40;;;;;;20795171;28;20073;-53
2021/10/16 09:24:50;;;;;;;2.50;1.33;;;14.30;99.40;;;;;;20796763;28;20123;-54
